Time;durP1;ratioP1;P1;durP2;ratioP2;P2;SDS_P1;SDS_P2;PMS_P1;PMS_P2;Temp;Humidity;BMP_temperature;BMP_pressure;BME280_temperature;BME280_humidity;BME280_pressure;Samples;Min_cycle;Max_cycle;Signal;HPM_P1;HPM_P2
2023/05/13 00:02:15;;;;;;;14.30;10.60;;;;;;;6.80;100.00;101758.02;105782;1258;76226;-53
2023/05/13 00:04:43;;;;;;;18.30;9.60;;;;;;;6.79;100.00;101760.09;105789;1257;66081;-51
2023/05/13 00:07:10;;;;;;;16.10;9.60;;;;;;;6.78;100.00;101761.94;105736;1257;74820;-51
2023/05/13 00:09:37;;;;;;;17.20;10.10;;;;;;;6.76;100.00;101761.41;105845;1253;62240;-51
2023/05/13 00:12:04;;;;;;;22.20;9.70;;;;;;;6.77;100.00;101759.54;105754;1253;62894;-51
2023/05/13 00:14:31;;;;;;;15.00;10.00;;;;;;;6.78;100.00;101759.56;105779;1258;76513;-52
2023/05/13 00:16:58;;;;;;;14.80;9.70;;;;;;;6.78;100.00;101759.71;105766;1251;67113;-52
2023/05/13 00:19:25;;;;;;;14.70;9.00;;;;;;;6.75;100.00;101756.06;105775;1259;75504;-52
2023/05/13 00:21:52;;;;;;;20.10;10.10;;;;;;;6.71;100.00;101760.81;105876;1258;63113;-51
2023/05/13 00:24:19;;;;;;;23.20;11.40;;;;;;;6.70;100.00;101755.96;105863;1257;61716;-51
2023/05/13 00:26:46;;;;;;;15.60;10.10;;;;;;;6.69;100.00;101753.20;105774;1253;74958;-51
2023/05/13 00:29:13;;;;;;;14.60;10.40;;;;;;;6.68;100.00;101751.13;105869;1253;66299;-51
2023/05/13 00:31:40;;;;;;;22.00;10.00;;;;;;;6.67;100.00;101752.98;105768;1253;75333;-52
2023/05/13 00:34:07;;;;;;;13.00;9.20;;;;;;;6.70;100.00;101750.83;105681;1256;63395;-51
2023/05/13 00:36:34;;;;;;;20.40;10.00;;;;;;;6.68;100.00;101749.92;105667;1254;62693;-51
2023/05/13 00:39:02;;;;;;;22.60;9.90;;;;;;;6.63;100.00;101751.38;105830;1253;76659;-51
2023/05/13 00:41:29;;;;;;;19.30;9.60;;;;;;;6.59;100.00;101753.04;105786;1251;67202;-51
2023/05/13 00:43:56;;;;;;;20.90;8.90;;;;;;;6.54;100.00;101753.09;105844;1253;74316;-51
2023/05/13 00:46:24;;;;;;;13.90;8.00;;;;;;;6.50;100.00;101754.58;105893;1253;63268;-50
2023/05/13 00:48:51;;;;;;;20.60;8.60;;;;;;;6.45;100.00;101755.69;105858;1252;63368;-50
2023/05/13 00:51:18;;;;;;;17.20;8.20;;;;;;;6.42;100.00;101757.33;105660;1259;76488;-50
2023/05/13 00:53:45;;;;;;;15.80;8.80;;;;;;;6.37;100.00;101763.94;105639;1261;66489;-51
2023/05/13 00:56:13;;;;;;;17.30;8.60;;;;;;;6.32;100.00;101767.09;105662;1262;75476;-51
2023/05/13 00:58:40;;;;;;;14.30;8.20;;;;;;;6.29;100.00;101768.91;105666;1258;61818;-50
2023/05/13 01:01:28;;;;;;;16.10;8.60;;;;;;;6.25;100.00;101767.29;105791;1259;62485;-50
2023/05/13 01:04:08;;;;;;;17.70;8.90;;;;;;;6.20;100.00;101772.33;105717;1259;76406;-50
2023/05/13 01:06:56;;;;;;;13.50;8.50;;;;;;;6.16;100.00;101773.25;105829;1253;67410;-50
2023/05/13 01:09:44;;;;;;;11.90;8.50;;;;;;;6.14;100.00;101779.73;105799;1256;75158;-51
2023/05/13 01:12:17;;;;;;;23.40;8.60;;;;;;;6.10;100.00;101782.24;105791;1253;63181;-51
2023/05/13 01:14:54;;;;;;;13.40;8.40;;;;;;;6.09;100.00;101785.83;105788;1259;61522;-51
2023/05/13 01:17:28;;;;;;;13.70;8.30;;;;;;;6.10;100.00;101791.65;105739;1257;76771;-51
2023/05/13 01:19:55;;;;;;;17.40;8.10;;;;;;;6.09;100.00;101794.20;105846;1259;67551;-50
2023/05/13 01:22:23;;;;;;;13.30;8.90;;;;;;;6.08;100.00;101800.54;105744;1253;75176;-50
2023/05/13 01:24:50;;;;;;;19.00;9.20;;;;;;;6.07;100.00;101803.23;105787;1253;61639;-51
2023/05/13 01:27:17;;;;;;;19.10;8.30;;;;;;;6.08;100.00;101802.23;105787;1257;62780;-51
2023/05/13 01:29:44;;;;;;;15.60;8.80;;;;;;;6.08;100.00;101806.36;105665;1254;76323;-50
2023/05/13 01:32:12;;;;;;;13.70;8.30;;;;;;;6.07;100.00;101808.23;105693;1253;65080;-52
2023/05/13 01:34:39;;;;;;;21.50;9.10;;;;;;;6.07;100.00;101808.21;105767;1253;74471;-51
2023/05/13 01:37:06;;;;;;;12.60;9.00;;;;;;;6.10;100.00;101815.83;105625;1267;61700;-49
2023/05/13 01:39:38;;;;;;;14.60;8.10;;;;;;;6.10;100.00;101821.15;105688;1258;61714;-52
2023/05/13 01:42:08;;;;;;;16.70;8.90;;;;;;;6.08;100.00;101822.83;105693;1258;76219;-49
2023/05/13 01:44:35;;;;;;;13.90;7.60;;;;;;;6.08;100.00;101826.59;105774;1253;67558;-51
2023/05/13 01:47:02;;;;;;;17.70;8.40;;;;;;;6.08;100.00;101821.77;105783;1257;75568;-51
2023/05/13 01:49:29;;;;;;;17.30;8.90;;;;;;;6.05;100.00;101825.14;105788;1254;62877;-50
2023/05/13 01:51:57;;;;;;;15.70;8.80;;;;;;;6.02;100.00;101823.21;105678;1259;61826;-50
2023/05/13 01:54:25;;;;;;;17.90;8.70;;;;;;;6.00;100.00;101828.27;105832;1251;74447;-50
2023/05/13 01:56:55;;;;;;;15.70;8.80;;;;;;;5.97;100.00;101826.48;105802;1258;67225;-50
2023/05/13 01:59:23;;;;;;;19.40;8.60;;;;;;;5.94;100.00;101832.23;105859;1253;73750;-51
2023/05/13 02:01:49;;;;;;;20.10;8.80;;;;;;;5.91;100.00;101828.55;105711;1255;61117;-51
2023/05/13 02:04:17;;;;;;;15.40;7.50;;;;;;;5.88;100.00;101831.42;105814;1251;62808;-50
2023/05/13 02:06:44;;;;;;;14.00;7.90;;;;;;;5.88;100.00;101834.85;105785;1253;75244;-51
2023/05/13 02:09:11;;;;;;;15.20;8.40;;;;;;;5.90;100.00;101833.02;105714;1259;65882;-50
2023/05/13 02:11:39;;;;;;;18.90;7.90;;;;;;;5.89;100.00;101833.00;105839;1253;75425;-50
2023/05/13 02:14:06;;;;;;;22.70;7.80;;;;;;;5.89;100.00;101838.64;105702;1259;62698;-51
2023/05/13 02:16:33;;;;;;;114.90;11.90;;;;;;;5.89;100.00;101842.05;105817;1258;62040;-50
2023/05/13 02:19:04;;;;;;;16.20;7.50;;;;;;;5.89;100.00;101840.84;105845;1253;74902;-50
2023/05/13 02:21:31;;;;;;;32.40;7.90;;;;;;;5.88;100.00;101841.52;105752;1257;65989;-50
2023/05/13 02:23:58;;;;;;;10.60;7.00;;;;;;;5.88;100.00;101849.08;105649;1260;74512;-50
2023/05/13 02:26:27;;;;;;;16.90;7.80;;;;;;;5.89;100.00;101852.67;105778;1253;62130;-50
2023/05/13 02:28:54;;;;;;;12.00;7.90;;;;;;;5.89;100.00;101852.70;105772;1252;61800;-50
2023/05/13 02:31:21;;;;;;;22.40;8.30;;;;;;;5.89;100.00;101850.80;105642;1255;75950;-51
2023/05/13 02:33:48;;;;;;;22.30;7.50;;;;;;;5.89;100.00;101855.77;105767;1259;66146;-50
2023/05/13 02:36:15;;;;;;;10.80;7.10;;;;;;;5.90;100.00;101855.13;105798;1256;75268;-51
2023/05/13 02:38:42;;;;;;;12.30;7.00;;;;;;;5.93;100.00;101852.61;105756;1254;62772;-50
2023/05/13 02:41:09;;;;;;;21.70;7.50;;;;;;;5.96;100.00;101852.51;105784;1253;62733;-50
2023/05/13 02:43:36;;;;;;;19.70;6.60;;;;;;;5.98;100.00;101853.77;105657;1252;75569;-50
2023/05/13 02:46:03;;;;;;;13.30;7.60;;;;;;;6.01;100.00;101854.55;105760;1254;66100;-50
2023/05/13 02:48:31;;;;;;;14.00;7.20;;;;;;;6.07;100.00;101857.58;105642;1256;74146;-51
2023/05/13 02:50:59;;;;;;;14.50;6.90;;;;;;;6.15;100.00;101856.22;105539;1253;61021;-50
2023/05/13 02:53:27;;;;;;;21.40;7.10;;;;;;;6.21;100.00;101857.56;105722;1259;62512;-49
2023/05/13 02:55:58;;;;;;;13.80;7.40;;;;;;;6.26;100.00;101861.60;105780;1257;76588;-51
2023/05/13 02:58:25;;;;;;;15.60;6.50;;;;;;;6.29;100.00;101866.47;105743;1253;66571;-49
2023/05/13 03:00:52;;;;;;;11.80;6.50;;;;;;;6.31;100.00;101871.84;105771;1259;74587;-49
2023/05/13 03:03:21;;;;;;;17.60;7.80;;;;;;;6.34;100.00;101876.70;105834;1253;61579;-50
2023/05/13 03:05:48;;;;;;;17.50;6.40;;;;;;;6.40;100.00;101880.23;105756;1258;61649;-50
2023/05/13 03:08:16;;;;;;;14.20;7.30;;;;;;;6.46;100.00;101884.33;105666;1257;76505;-49
2023/05/13 03:10:42;;;;;;;25.20;7.30;;;;;;;6.55;100.00;101890.52;105672;1258;66125;-50
2023/05/13 03:13:11;;;;;;;22.30;7.90;;;;;;;6.65;100.00;101892.10;105848;1257;75356;-50
2023/05/13 03:15:38;;;;;;;21.30;8.20;;;;;;;6.75;100.00;101896.42;105763;1253;64235;-50
2023/05/13 03:18:08;;;;;;;13.20;8.00;;;;;;;6.86;100.00;101900.07;105704;1253;62836;-50
2023/05/13 03:20:35;;;;;;;21.90;8.50;;;;;;;6.99;100.00;101903.59;105656;1254;76678;-49
2023/05/13 03:23:02;;;;;;;22.90;9.10;;;;;;;7.12;100.00;101907.10;105772;1254;67692;-50
2023/05/13 03:25:30;;;;;;;23.00;9.30;;;;;;;7.25;100.00;101910.93;105787;1258;73893;-50
2023/05/13 03:27:57;;;;;;;16.80;7.80;;;;;;;7.38;100.00;101913.25;105860;1254;63171;-49
2023/05/13 03:30:26;;;;;;;23.40;8.90;;;;;;;7.53;100.00;101915.73;105765;1263;62932;-49
2023/05/13 03:33:01;;;;;;;21.00;9.60;;;;;;;7.67;100.00;101920.27;105709;1258;74534;-49
2023/05/13 03:35:29;;;;;;;15.10;9.00;;;;;;;7.80;100.00;101921.18;105648;1257;67120;-49
2023/05/13 03:37:56;;;;;;;21.20;8.70;;;;;;;7.92;100.00;101923.60;105713;1259;75457;-50
2023/05/13 03:40:23;;;;;;;24.70;8.10;;;;;;;8.04;100.00;101927.04;105724;1253;64497;-50
2023/05/13 03:42:51;;;;;;;20.50;7.80;;;;;;;8.16;100.00;101930.84;105627;1259;61528;-50
2023/05/13 03:45:19;;;;;;;18.70;8.40;;;;;;;8.32;100.00;101940.36;105778;1259;76717;-49
2023/05/13 03:47:49;;;;;;;15.40;8.20;;;;;;;8.47;100.00;101946.95;105769;1254;65508;-50
2023/05/13 03:50:17;;;;;;;14.80;8.40;;;;;;;8.65;100.00;101949.45;105886;1256;72979;-50
2023/05/13 03:52:45;;;;;;;13.40;8.00;;;;;;;8.81;100.00;101955.36;105632;1258;64287;-51
2023/05/13 03:55:14;;;;;;;17.00;7.20;;;;;;;9.01;100.00;101960.58;105793;1252;63077;-51
2023/05/13 03:57:45;;;;;;;20.40;8.40;;;;;;;9.18;100.00;101968.38;105838;1259;75589;-50
2023/05/13 04:00:13;;;;;;;23.30;7.60;;;;;;;9.34;100.00;101978.89;105716;1258;65947;-50
2023/05/13 04:02:41;;;;;;;15.60;7.50;;;;;;;9.49;100.00;101989.05;105789;1256;75239;-50
2023/05/13 04:05:09;;;;;;;9.70;7.40;;;;;;;9.60;100.00;102000.52;105817;1254;63216;-50
2023/05/13 04:07:36;;;;;;;14.80;7.20;;;;;;;9.73;100.00;102015.13;105814;1257;61764;-50
2023/05/13 04:10:04;;;;;;;15.00;6.70;;;;;;;9.88;100.00;102030.63;105638;1251;74821;-49
2023/05/13 04:12:32;;;;;;;11.90;6.60;;;;;;;10.03;100.00;102033.17;105722;1254;67298;-50
2023/05/13 04:14:59;;;;;;;14.00;6.90;;;;;;;10.14;100.00;102034.13;105808;1257;74495;-49
2023/05/13 04:17:27;;;;;;;15.40;6.80;;;;;;;10.29;100.00;102032.37;105798;1259;61847;-50
2023/05/13 04:19:54;;;;;;;15.20;7.00;;;;;;;10.48;100.00;102026.83;105851;1253;62464;-50
2023/05/13 04:22:23;;;;;;;10.80;6.60;;;;;;;10.69;100.00;102016.78;105792;1259;76302;-50
2023/05/13 04:24:55;;;;;;;18.20;6.60;;;;;;;10.83;100.00;101993.20;105799;1254;67101;-50
2023/05/13 04:27:23;;;;;;;15.60;6.90;;;;;;;11.00;100.00;101951.48;105905;1257;74470;-50
2023/05/13 04:29:54;;;;;;;10.40;6.60;;;;;;;11.16;100.00;101897.28;105740;1254;62711;-50
2023/05/13 04:32:22;;;;;;;18.70;6.50;;;;;;;11.30;100.00;101845.63;105763;1261;61024;-50
2023/05/13 04:34:54;;;;;;;18.70;6.80;;;;;;;11.48;100.00;101788.08;105722;1252;76062;-49
2023/05/13 04:37:23;;;;;;;17.00;6.40;;;;;;;11.64;100.00;101726.67;105742;1254;67460;-50
2023/05/13 04:39:52;;;;;;;9.10;6.40;;;;;;;11.82;100.00;101664.37;105784;1257;75355;-50
2023/05/13 04:42:21;;;;;;;18.20;7.10;;;;;;;12.03;100.00;101607.88;105721;1255;60670;-50
2023/05/13 04:44:48;;;;;;;11.30;6.80;;;;;;;12.22;100.00;101549.29;105677;1258;61747;-50
2023/05/13 04:47:15;;;;;;;19.80;7.30;;;;;;;12.37;100.00;101471.63;105674;1260;76491;-49
2023/05/13 04:49:43;;;;;;;18.90;6.50;;;;;;;12.41;100.00;101383.82;105863;1258;67096;-49
2023/05/13 04:52:12;;;;;;;23.50;6.80;;;;;;;12.47;100.00;101337.86;105733;1254;74057;-50
2023/05/13 04:54:39;;;;;;;18.60;7.10;;;;;;;12.55;100.00;101307.14;105779;1259;61199;-49
2023/05/13 04:57:06;;;;;;;15.50;6.90;;;;;;;12.64;100.00;101282.09;105753;1255;61022;-49
2023/05/13 04:59:34;;;;;;;17.50;7.50;;;;;;;12.77;100.00;101262.85;105742;1259;76205;-50
2023/05/13 05:02:01;;;;;;;16.00;6.80;;;;;;;12.96;100.00;101249.39;105666;1258;65834;-50
2023/05/13 05:04:28;;;;;;;24.20;7.10;;;;;;;13.14;100.00;101226.23;105776;1257;75209;-50
2023/05/13 05:06:56;;;;;;;13.90;7.10;;;;;;;13.35;100.00;101208.38;105868;1254;61489;-50
2023/05/13 05:09:23;;;;;;;19.70;7.60;;;;;;;13.63;100.00;101212.92;105628;1261;62769;-50
2023/05/13 05:11:51;;;;;;;19.50;7.20;;;;;;;13.91;100.00;101236.31;105540;1259;370494;-50
2023/05/13 05:15:30;;;;;;;9.50;5.30;;;;;;;14.25;100.00;101266.33;102731;1293;600137;-50
2023/05/13 05:17:59;;;;;;;11.60;6.40;;;;;;;14.43;100.00;101344.29;104841;1267;61340;-51
2023/05/13 05:20:26;;;;;;;11.80;5.60;;;;;;;14.57;100.00;101412.61;105382;1264;61845;-50
2023/05/13 05:22:56;;;;;;;7.80;5.00;;;;;;;14.65;100.00;101469.58;105396;1264;74621;-51
2023/05/13 05:25:25;;;;;;;17.50;6.00;;;;;;;14.75;100.00;101511.30;105438;1264;67264;-51
2023/05/13 05:27:52;;;;;;;13.70;5.70;;;;;;;14.92;100.00;101530.78;105280;1261;73891;-51
2023/05/13 05:30:19;;;;;;;17.90;6.10;;;;;;;15.13;100.00;101543.24;105425;1261;230899;-51
2023/05/13 05:32:54;;;;;;;8.40;5.40;;;;;;;15.23;92.97;101558.67;105575;1263;61550;-51
2023/05/13 05:35:21;;;;;;;26.30;7.30;;;;;;;15.33;93.64;101586.64;105558;1257;74730;-51
2023/05/13 05:37:48;;;;;;;34.10;8.00;;;;;;;15.58;95.26;101598.13;105600;1260;65845;-51
2023/05/13 05:40:16;;;;;;;23.10;8.80;;;;;;;15.92;91.90;101599.49;105501;1260;75065;-51
2023/05/13 05:42:43;;;;;;;61.80;24.90;;;;;;;16.19;88.58;101599.07;105584;1258;61740;-51
2023/05/13 05:45:10;;;;;;;31.70;9.90;;;;;;;16.37;85.47;101601.45;105516;1263;61707;-52
2023/05/13 05:47:38;;;;;;;19.40;9.20;;;;;;;16.54;77.72;101591.96;105611;1260;73704;-51
2023/05/13 05:50:06;;;;;;;25.90;8.60;;;;;;;16.74;74.00;101585.86;105365;1264;66917;-51
2023/05/13 05:52:33;;;;;;;42.10;9.40;;;;;;;16.94;69.12;101579.92;105638;1261;75666;-51
2023/05/13 05:55:02;;;;;;;37.20;8.90;;;;;;;17.11;68.12;101595.55;105539;1262;63301;-51
2023/05/13 05:57:29;;;;;;;31.20;8.90;;;;;;;17.37;65.38;101564.64;105604;1263;62758;-51
2023/05/13 05:59:57;;;;;;;26.20;8.30;;;;;;;17.61;62.23;101532.15;105561;1263;75313;-51
2023/05/13 06:02:24;;;;;;;27.00;8.60;;;;;;;17.79;60.35;101516.42;105398;1264;66196;-51
2023/05/13 06:04:51;;;;;;;68.20;9.80;;;;;;;17.88;58.48;101499.58;105575;1263;74204;-51
2023/05/13 06:07:18;;;;;;;29.40;8.00;;;;;;;17.99;57.24;101480.00;105632;1257;62522;-51
2023/05/13 06:09:46;;;;;;;24.30;8.30;;;;;;;18.12;55.93;101445.86;105347;1264;62494;-52
2023/05/13 06:12:13;;;;;;;37.10;7.60;;;;;;;18.28;55.56;101457.91;105353;1263;74833;-51
2023/05/13 06:14:40;;;;;;;32.90;8.70;;;;;;;18.40;54.82;101438.09;105279;1257;66641;-51
2023/05/13 06:17:08;;;;;;;33.30;8.10;;;;;;;18.62;54.09;101416.67;105443;1263;74816;-51
2023/05/13 06:19:35;;;;;;;16.40;7.10;;;;;;;18.86;53.98;101428.37;105272;1258;62877;-52
2023/05/13 06:22:02;;;;;;;26.20;6.80;;;;;;;19.18;52.40;101334.98;105499;1257;61032;-52
2023/05/13 06:24:30;;;;;;;26.40;8.20;;;;;;;19.35;51.12;101273.59;105305;1258;74197;-51
2023/05/13 06:26:57;;;;;;;26.70;6.50;;;;;;;19.34;51.17;101316.84;105114;1263;65249;-51
2023/05/13 06:29:23;;;;;;;31.50;5.30;;;;;;;19.33;50.82;101319.68;105451;1264;75332;-51
2023/05/13 06:31:51;;;;;;;25.30;7.50;;;;;;;19.38;50.58;101320.19;105346;1257;62354;-52
2023/05/13 06:34:18;;;;;;;29.00;7.00;;;;;;;19.33;50.32;101323.72;105269;1257;60680;-51
2023/05/13 06:36:46;;;;;;;21.70;6.40;;;;;;;19.30;50.38;101354.83;105288;1257;74266;-53
2023/05/13 06:39:13;;;;;;;18.00;6.40;;;;;;;19.37;50.53;101363.61;105383;1257;67975;-56
2023/05/13 06:41:40;;;;;;;17.70;6.40;;;;;;;19.46;50.33;101355.23;105205;1264;75522;-52
2023/05/13 06:44:12;;;;;;;26.10;6.80;;;;;;;19.53;50.72;101410.73;105334;1260;63185;-49
2023/05/13 06:46:40;;;;;;;21.90;5.80;;;;;;;19.50;50.38;101394.59;105273;1257;63246;-50
2023/05/13 06:49:07;;;;;;;16.80;4.10;;;;;;;19.50;50.85;101426.45;105433;1257;74181;-53
2023/05/13 06:51:34;;;;;;;13.30;4.60;;;;;;;19.57;50.23;101378.91;105435;1263;66199;-52
2023/05/13 06:54:01;;;;;;;5.80;2.80;;;;;;;19.59;49.28;101305.15;105383;1263;75344;-51
2023/05/13 06:56:28;;;;;;;17.20;3.40;;;;;;;19.59;47.77;101177.02;105440;1257;62169;-52
2023/05/13 06:58:55;;;;;;;12.30;3.60;;;;;;;19.62;47.87;101202.77;105399;1257;62553;-51
2023/05/13 07:01:22;;;;;;;5.20;3.20;;;;;;;19.58;48.71;101314.95;105424;1263;75877;-50
2023/05/13 07:03:49;;;;;;;12.50;3.10;;;;;;;19.47;49.50;101403.63;105462;1263;66010;-51
2023/05/13 07:06:17;;;;;;;15.50;2.90;;;;;;;19.36;49.56;101429.31;105442;1264;73627;-51
2023/05/13 07:08:44;;;;;;;9.90;3.20;;;;;;;19.27;49.55;101421.08;105567;1258;62474;-51
2023/05/13 07:11:11;;;;;;;9.20;3.30;;;;;;;19.06;50.36;101504.95;105449;1257;63106;-52
2023/05/13 07:13:38;;;;;;;22.70;3.20;;;;;;;18.97;50.20;101500.73;105434;1263;74984;-51
2023/05/13 07:16:05;;;;;;;15.30;3.60;;;;;;;18.81;50.12;101494.81;105432;1258;66162;-51
2023/05/13 07:18:33;;;;;;;13.30;3.00;;;;;;;18.64;50.47;101537.55;105451;1262;74538;-51
2023/05/13 07:21:00;;;;;;;15.80;2.90;;;;;;;18.60;51.18;101602.02;105420;1263;61644;-52
2023/05/13 07:23:27;;;;;;;9.30;3.30;;;;;;;18.62;50.70;101548.80;105403;1258;60810;-51
2023/05/13 07:25:54;;;;;;;10.80;2.80;;;;;;;18.66;51.00;101574.73;105450;1258;75746;-52
2023/05/13 07:28:21;;;;;;;11.10;2.90;;;;;;;18.64;50.38;101522.89;105453;1258;66553;-51
2023/05/13 07:30:48;;;;;;;11.20;2.70;;;;;;;18.52;49.52;101434.85;105434;1263;75075;-51
2023/05/13 07:33:15;;;;;;;8.20;2.30;;;;;;;18.37;50.32;101531.14;105437;1261;62927;-51
2023/05/13 07:35:42;;;;;;;8.50;2.90;;;;;;;18.39;50.79;101577.03;105551;1262;61995;-52
2023/05/13 07:38:10;;;;;;;14.90;3.10;;;;;;;18.46;50.18;101511.11;105477;1263;74896;-51
2023/05/13 07:40:38;;;;;;;12.40;3.00;;;;;;;18.50;50.32;101531.41;105560;1257;66417;-50
2023/05/13 07:43:05;;;;;;;14.00;4.50;;;;;;;18.60;50.70;101556.05;105456;1258;75241;-50
2023/05/13 07:45:33;;;;;;;20.20;4.40;;;;;;;18.64;49.88;101481.80;105524;1263;62442;-51
2023/05/13 07:48:00;;;;;;;16.90;3.90;;;;;;;18.71;49.27;101432.59;105470;1258;62588;-51
2023/05/13 07:50:27;;;;;;;19.20;2.90;;;;;;;18.80;49.45;101461.48;105485;1260;76060;-51
2023/05/13 07:52:54;;;;;;;20.00;2.40;;;;;;;18.99;47.52;101260.71;105224;1259;66677;-51
2023/05/13 07:55:21;;;;;;;14.50;2.20;;;;;;;19.09;45.91;101088.55;105345;1263;75421;-51
2023/05/13 07:57:48;;;;;;;19.60;2.60;;;;;;;19.16;45.73;101070.08;105382;1261;61777;-51
2023/05/13 08:00:16;;;;;;;7.70;3.40;;;;;;;19.22;45.21;101034.64;105354;1260;62863;-51
2023/05/13 08:02:43;;;;;;;17.00;3.40;;;;;;;19.18;44.97;101012.77;105375;1263;75742;-51
2023/05/13 08:05:11;;;;;;;9.10;2.20;;;;;;;19.17;45.17;101047.11;105397;1263;66054;-51
2023/05/13 08:07:38;;;;;;;11.00;2.10;;;;;;;19.10;45.10;101054.43;105399;1264;74246;-51
2023/05/13 08:10:06;;;;;;;8.50;2.60;;;;;;;19.07;44.97;101052.45;105392;1260;61036;-51
2023/05/13 08:12:33;;;;;;;10.60;2.20;;;;;;;19.11;44.99;101070.09;105465;1261;62507;-51
2023/05/13 08:15:02;;;;;;;32.70;3.80;;;;;;;19.22;45.39;101124.91;105386;1264;75980;-51
2023/05/13 08:17:29;;;;;;;12.10;2.50;;;;;;;19.47;44.45;101027.73;105451;1260;67236;-50
2023/05/13 08:19:56;;;;;;;7.40;2.00;;;;;;;19.79;43.53;100907.85;105227;1264;73995;-50
2023/05/13 08:22:26;;;;;;;10.00;2.30;;;;;;;20.12;42.79;100825.84;105349;1261;61532;-50
2023/05/13 08:24:53;;;;;;;7.60;2.10;;;;;;;20.36;42.10;100731.68;105276;1260;62675;-50
2023/05/13 08:27:20;;;;;;;14.20;2.70;;;;;;;20.54;41.06;100610.44;105203;1262;75471;-50
2023/05/13 08:29:47;;;;;;;4.80;2.20;;;;;;;20.69;40.20;100475.81;105456;1262;66924;-50
2023/05/13 08:32:14;;;;;;;11.00;2.10;;;;;;;20.78;40.28;100493.17;105497;1258;75336;-51
2023/05/13 08:34:41;;;;;;;12.50;2.50;;;;;;;20.95;38.97;100384.66;105485;1261;61498;-51
2023/05/13 08:37:08;;;;;;;7.90;1.80;;;;;;;21.09;39.31;100376.98;105515;1257;63235;-51
2023/05/13 08:39:35;;;;;;;10.30;2.00;;;;;;;21.32;37.72;100228.08;105513;1261;74512;-51
2023/05/13 08:42:02;;;;;;;5.90;2.00;;;;;;;21.47;36.56;100059.79;105448;1262;65611;-51
2023/05/13 08:44:31;;;;;;;21.70;2.10;;;;;;;21.65;36.46;100014.88;105487;1261;76336;-51
2023/05/13 08:47:17;;;;;;;4.20;1.40;;;;;;;21.78;35.82;99957.72;105489;1261;61775;-50
2023/05/13 08:49:45;;;;;;;6.40;1.50;;;;;;;21.55;35.33;99889.02;105580;1257;62689;-50
2023/05/13 08:52:12;;;;;;;3.90;1.20;;;;;;;21.21;35.35;99875.70;105342;1260;75551;-50
2023/05/13 08:54:39;;;;;;;4.40;1.40;;;;;;;21.01;35.24;99906.55;105486;1263;66860;-50
2023/05/13 08:57:06;;;;;;;6.10;1.60;;;;;;;21.10;35.85;99986.41;105190;1257;75366;-50
2023/05/13 08:59:33;;;;;;;3.50;1.70;;;;;;;21.44;38.11;100254.69;105519;1257;62580;-50
2023/05/13 09:02:02;;;;;;;6.20;1.60;;;;;;;21.89;36.92;100182.94;105538;1262;60904;-50
2023/05/13 09:04:29;;;;;;;4.00;2.00;;;;;;;22.27;35.01;99934.69;105484;1263;75610;-50
2023/05/13 09:06:56;;;;;;;5.00;2.00;;;;;;;22.52;32.95;99650.35;105494;1258;66214;-52
2023/05/13 09:09:23;;;;;;;7.60;1.40;;;;;;;22.72;31.81;99460.98;105257;1258;75424;-51
2023/05/13 09:11:50;;;;;;;4.10;1.00;;;;;;;22.86;31.81;99419.14;105345;1258;63086;-51
2023/05/13 09:14:18;;;;;;;4.70;1.40;;;;;;;23.06;32.12;99459.40;105510;1262;62029;-50
2023/05/13 09:16:46;;;;;;;7.30;1.60;;;;;;;23.22;31.44;99358.83;105707;1257;75517;-52
2023/05/13 09:19:13;;;;;;;30.10;2.00;;;;;;;23.33;29.81;99121.04;105488;1259;66946;-50
2023/05/13 09:21:40;;;;;;;2.60;1.30;;;;;;;23.35;30.03;99071.42;105771;1257;73855;-52
2023/05/13 09:24:09;;;;;;;5.70;1.30;;;;;;;23.47;29.83;99060.01;105506;1257;62785;-53
2023/05/13 09:26:37;;;;;;;13.30;2.40;;;;;;;23.42;29.20;98911.77;105730;1254;62156;-51
2023/05/13 09:29:27;;;;;;;6.00;1.60;;;;;;;23.34;30.85;99121.59;105547;1259;76750;-51
2023/05/13 09:31:58;;;;;;;3.00;0.90;;;;;;;23.49;29.11;98954.29;105647;1254;67946;-51
2023/05/13 09:34:29;;;;;;;2.90;0.80;;;;;;;23.54;29.01;98880.54;105601;1257;73909;-52
2023/05/13 09:37:04;;;;;;;1.50;0.90;;;;;;;23.63;28.78;98861.41;105578;1256;63056;-54
2023/05/13 09:39:33;;;;;;;3.00;0.80;;;;;;;23.88;29.30;98913.50;105624;1260;61562;-51
2023/05/13 09:42:01;;;;;;;8.60;1.50;;;;;;;23.89;29.41;98934.38;105553;1255;75136;-52
2023/05/13 09:44:30;;;;;;;8.60;1.30;;;;;;;23.90;29.68;98980.23;105393;1259;67131;-52
2023/05/13 09:46:57;;;;;;;2.40;1.20;;;;;;;24.14;29.57;98995.59;105646;1256;74161;-52
2023/05/13 09:49:28;;;;;;;7.40;0.90;;;;;;;24.51;29.79;99002.27;105554;1256;62755;-51
2023/05/13 09:51:55;;;;;;;3.30;0.90;;;;;;;24.98;28.77;98899.21;105558;1260;62698;-54
2023/05/13 09:54:22;;;;;;;13.00;2.10;;;;;;;25.27;28.23;98771.16;105500;1254;76317;-51
2023/05/13 09:56:49;;;;;;;3.30;1.10;;;;;;;25.14;27.52;98671.59;105540;1259;65774;-51
2023/05/13 09:59:16;;;;;;;7.70;1.10;;;;;;;24.94;28.55;98780.05;105611;1256;74775;-51
2023/05/13 10:01:43;;;;;;;4.50;1.20;;;;;;;25.20;28.64;98806.46;105509;1254;62005;-52
2023/05/13 10:04:10;;;;;;;4.70;1.10;;;;;;;25.46;28.70;98813.72;105528;1255;61739;-52
2023/05/13 10:06:37;;;;;;;3.80;1.00;;;;;;;25.78;28.95;98856.11;105569;1254;76198;-52
2023/05/13 10:09:04;;;;;;;4.40;1.00;;;;;;;26.16;27.98;98715.63;105761;1256;66309;-52
2023/05/13 10:11:32;;;;;;;1.30;0.80;;;;;;;26.44;27.85;98693.34;105568;1259;74431;-51
2023/05/13 10:14:01;;;;;;;2.70;1.80;;;;;;;26.45;26.17;98464.85;105654;1259;61691;-50
2023/05/13 10:16:28;;;;;;;3.80;1.10;;;;;;;26.17;26.78;98502.16;105671;1259;62167;-51
2023/05/13 10:18:57;;;;;;;2.10;0.80;;;;;;;26.03;27.73;98586.77;105583;1260;75540;-51
2023/05/13 10:21:26;;;;;;;4.50;1.10;;;;;;;26.08;27.34;98597.41;105589;1254;66873;-51
2023/05/13 10:23:52;;;;;;;4.00;1.10;;;;;;;26.22;27.41;98594.89;105618;1257;74401;-51
2023/05/13 10:26:20;;;;;;;5.70;1.20;;;;;;;26.43;26.64;98516.05;105588;1256;63157;-51
2023/05/13 10:28:48;;;;;;;6.80;1.90;;;;;;;26.66;26.93;98527.33;105632;1254;62139;-51
2023/05/13 10:31:16;;;;;;;2.40;1.30;;;;;;;26.82;26.67;98501.28;105646;1259;76239;-51
2023/05/13 10:33:44;;;;;;;4.60;1.10;;;;;;;26.52;26.84;98518.89;105689;1259;65985;-51
2023/05/13 10:36:47;;;;;;;2.10;1.10;;;;;;;25.99;27.55;98620.80;105598;1259;73627;-51
2023/05/13 10:39:33;;;;;;;6.20;1.00;;;;;;;25.45;27.39;98615.13;105633;1256;61551;-51
2023/05/13 10:42:30;;;;;;;2.40;1.40;;;;;;;24.96;28.55;98755.11;105668;1259;62843;-51
2023/05/13 10:44:57;;;;;;;2.70;1.00;;;;;;;24.93;28.03;98750.71;105656;1259;74695;-52
2023/05/13 10:47:24;;;;;;;5.10;1.10;;;;;;;24.78;28.61;98810.66;105607;1254;67194;-51
2023/05/13 10:49:54;;;;;;;6.50;1.10;;;;;;;24.71;28.20;98781.88;105582;1256;74516;-52
2023/05/13 10:52:21;;;;;;;2.00;1.00;;;;;;;24.75;29.54;98936.28;105608;1259;61441;-52
2023/05/13 10:55:01;;;;;;;5.70;1.10;;;;;;;25.01;28.13;98808.41;105596;1260;62067;-51
2023/05/13 10:57:38;;;;;;;2.10;0.90;;;;;;;25.22;28.89;98876.79;105578;1254;76592;-52
2023/05/13 11:00:16;;;;;;;3.70;1.20;;;;;;;25.19;27.80;98775.43;105569;1260;67524;-51
2023/05/13 11:02:44;;;;;;;6.40;1.00;;;;;;;24.94;28.09;98794.73;105630;1257;74663;-51
2023/05/13 11:05:21;;;;;;;7.70;1.30;;;;;;;24.68;28.62;98850.23;105669;1257;61894;-51
2023/05/13 11:07:55;;;;;;;17.50;1.90;;;;;;;24.58;28.88;98896.20;105526;1254;62115;-52
2023/05/13 11:10:24;;;;;;;4.80;1.10;;;;;;;24.68;29.53;98981.40;105577;1259;76514;-51
2023/05/13 11:13:19;;;;;;;1.20;0.90;;;;;;;24.67;29.25;98972.32;105603;1254;66317;-53
2023/05/13 11:15:53;;;;;;;11.40;2.50;;;;;;;24.10;29.53;98991.87;105599;1259;74957;-51
2023/05/13 11:18:28;;;;;;;6.30;1.30;;;;;;;23.64;29.29;99002.08;105576;1257;61761;-51
2023/05/13 11:21:01;;;;;;;17.10;3.50;;;;;;;23.53;30.39;99091.36;105472;1259;62085;-52